Time;durP1;ratioP1;P1;durP2;ratioP2;P2;SDS_P1;SDS_P2;PMS_P1;PMS_P2;Temp;Humidity;BMP_temperature;BMP_pressure;BME280_temperature;BME280_humidity;BME280_pressure;Samples;Min_cycle;Max_cycle;Signal;HPM_P1;HPM_P2
2023/04/11 00:01:50;;;;;;;7.50;4.97;;;11.20;99.90;;;;;;4205348;28;20607;-75
2023/04/11 00:03:53;;;;;;;7.97;4.83;;;11.20;99.90;;;;;;4202989;28;20689;-74
2023/04/11 00:05:55;;;;;;;7.53;4.47;;;11.30;99.90;;;;;;4199909;28;20217;-75
2023/04/11 00:07:58;;;;;;;7.17;4.57;;;11.10;99.90;;;;;;4202496;28;20236;-75
2023/04/11 00:10:00;;;;;;;6.83;3.93;;;11.20;99.90;;;;;;4199383;28;20211;-74
2023/04/11 00:12:03;;;;;;;8.10;4.90;;;11.20;99.90;;;;;;4202009;28;20243;-74
2023/04/11 00:14:07;;;;;;;7.63;4.17;;;11.20;99.90;;;;;;4206836;28;20297;-74
2023/04/11 00:16:10;;;;;;;6.57;4.20;;;11.10;99.90;;;;;;4202731;28;20204;-74
2023/04/11 00:18:12;;;;;;;6.63;4.43;;;11.10;99.90;;;;;;4203269;28;20229;-75
2023/04/11 00:20:15;;;;;;;6.87;4.00;;;11.10;99.90;;;;;;4201780;28;20270;-74
2023/04/11 00:22:17;;;;;;;8.00;4.40;;;11.10;99.90;;;;;;4202550;28;20637;-75
2023/04/11 00:24:19;;;;;;;6.87;4.13;;;11.10;99.90;;;;;;4200352;28;20204;-74
2023/04/11 00:26:21;;;;;;;7.10;4.17;;;11.10;99.90;;;;;;4199176;28;20204;-74
2023/04/11 00:28:23;;;;;;;6.17;4.17;;;11.10;99.90;;;;;;4201877;28;20247;-74
2023/04/11 00:30:25;;;;;;;7.13;3.93;;;11.10;99.90;;;;;;4200984;28;20230;-74
2023/04/11 00:32:27;;;;;;;7.40;4.17;;;11.00;99.90;;;;;;4201259;28;20208;-74
2023/04/11 00:34:31;;;;;;;6.30;4.10;;;11.10;99.90;;;;;;4199016;28;20212;-74
2023/04/11 00:36:34;;;;;;;6.83;3.83;;;11.10;99.90;;;;;;4199266;28;20232;-74
2023/04/11 00:38:37;;;;;;;7.73;4.43;;;11.10;99.90;;;;;;4199459;28;20209;-74
2023/04/11 00:40:38;;;;;;;6.73;3.97;;;11.10;99.90;;;;;;4202840;28;20208;-74
2023/04/11 00:42:40;;;;;;;6.37;3.80;;;11.00;99.90;;;;;;4204281;28;20204;-74
2023/04/11 00:44:42;;;;;;;7.73;4.07;;;11.00;99.90;;;;;;4202466;28;20652;-73
2023/04/11 00:46:46;;;;;;;6.60;3.83;;;11.00;99.90;;;;;;4202001;28;20282;-74
2023/04/11 00:48:48;;;;;;;9.77;4.10;;;11.00;99.90;;;;;;4199211;28;20292;-74
2023/04/11 00:50:50;;;;;;;8.00;4.20;;;11.00;99.90;;;;;;4201264;28;20254;-74
2023/04/11 00:52:55;;;;;;;8.30;4.50;;;11.00;99.90;;;;;;4201547;28;20229;-74
2023/04/11 00:54:58;;;;;;;7.17;4.00;;;11.00;99.90;;;;;;4201095;28;20213;-74
2023/04/11 00:57:01;;;;;;;8.67;3.83;;;11.00;99.90;;;;;;4199565;28;20780;-74
2023/04/11 00:59:03;;;;;;;7.07;3.97;;;11.00;99.90;;;;;;4203178;28;20208;-74
2023/04/11 01:01:08;;;;;;;4.47;3.23;;;11.00;99.90;;;;;;4200604;28;20308;-74
2023/04/11 01:03:10;;;;;;;5.67;3.70;;;10.70;99.90;;;;;;4203541;28;20266;-73
2023/04/11 01:05:17;;;;;;;7.70;3.77;;;11.00;99.90;;;;;;4201976;28;20208;-74
2023/04/11 01:07:21;;;;;;;7.10;3.90;;;11.00;99.90;;;;;;4199671;28;20237;-74
2023/04/11 01:09:27;;;;;;;6.07;3.67;;;11.00;99.90;;;;;;4201731;28;20756;-75
2023/04/11 01:11:29;;;;;;;8.77;4.00;;;11.00;99.90;;;;;;4201917;28;20223;-74
2023/04/11 01:13:32;;;;;;;8.23;3.87;;;11.00;99.90;;;;;;4201884;28;20200;-75
2023/04/11 01:15:34;;;;;;;7.07;4.17;;;11.00;99.90;;;;;;4199632;28;20292;-74
2023/04/11 01:17:36;;;;;;;6.23;3.80;;;11.00;99.90;;;;;;4205214;28;20701;-73
2023/04/11 01:19:38;;;;;;;7.57;3.77;;;11.00;99.90;;;;;;4202054;28;20234;-74
2023/04/11 01:21:41;;;;;;;6.03;3.60;;;11.00;99.90;;;;;;4201103;28;20213;-74
2023/04/11 01:23:47;;;;;;;6.17;3.70;;;11.00;99.90;;;;;;4200225;28;20584;-74
2023/04/11 01:25:49;;;;;;;6.93;3.87;;;11.00;99.90;;;;;;4199045;28;20242;-74
2023/04/11 01:27:51;;;;;;;6.20;3.67;;;11.00;99.90;;;;;;4202692;28;20293;-74
2023/04/11 01:29:53;;;;;;;5.30;3.37;;;11.00;99.90;;;;;;4200983;28;20342;-74
2023/04/11 01:31:55;;;;;;;6.50;3.40;;;11.00;99.90;;;;;;4198901;28;20240;-74
2023/04/11 01:33:57;;;;;;;8.00;4.23;;;11.00;99.90;;;;;;4203371;28;20215;-74
2023/04/11 01:35:59;;;;;;;6.30;3.37;;;11.10;99.90;;;;;;4200476;28;20216;-74
2023/04/11 01:38:02;;;;;;;6.83;3.70;;;11.10;99.90;;;;;;4203650;28;20294;-73
2023/04/11 01:40:07;;;;;;;5.30;3.20;;;11.00;99.90;;;;;;4200450;28;20212;-74
2023/04/11 01:42:10;;;;;;;5.57;3.27;;;11.00;99.90;;;;;;4199469;28;20220;-73
2023/04/11 01:44:12;;;;;;;5.33;3.50;;;11.10;99.90;;;;;;4199966;28;20818;-73
2023/04/11 01:46:15;;;;;;;7.90;4.07;;;11.00;99.90;;;;;;4204185;28;20305;-74
2023/04/11 01:48:17;;;;;;;6.73;3.80;;;10.90;99.90;;;;;;4201240;28;20235;-74
2023/04/11 01:50:19;;;;;;;7.17;4.00;;;10.60;99.90;;;;;;4202534;28;20235;-74
2023/04/11 01:52:21;;;;;;;7.73;4.00;;;10.30;99.90;;;;;;4202563;28;20217;-74
2023/04/11 01:54:23;;;;;;;12.57;4.63;;;10.00;99.90;;;;;;4206939;28;20649;-74
2023/04/11 01:56:26;;;;;;;9.00;5.30;;;9.70;99.90;;;;;;4198536;28;20687;-75
2023/04/11 01:58:28;;;;;;;12.27;5.40;;;9.40;99.90;;;;;;4197556;28;20210;-75
2023/04/11 02:00:31;;;;;;;9.40;5.47;;;9.20;99.90;;;;;;4202384;28;20823;-75
2023/04/11 02:02:33;;;;;;;8.50;4.90;;;9.00;99.90;;;;;;4199228;28;20234;-73
2023/04/11 02:04:35;;;;;;;11.20;5.90;;;8.80;99.90;;;;;;4197861;28;20742;-73
2023/04/11 02:06:37;;;;;;;10.00;5.57;;;8.70;99.90;;;;;;4198391;28;20225;-73
2023/04/11 02:08:39;;;;;;;8.43;5.33;;;8.70;99.90;;;;;;4198589;28;20227;-73
2023/04/11 02:10:41;;;;;;;10.33;5.80;;;8.60;99.90;;;;;;4205936;28;20292;-74
2023/04/11 02:12:44;;;;;;;10.77;6.30;;;8.50;99.90;;;;;;4203932;28;20237;-74
2023/04/11 02:14:48;;;;;;;11.33;6.27;;;8.50;99.90;;;;;;4201636;28;20213;-74
2023/04/11 02:16:50;;;;;;;9.77;5.50;;;8.50;99.90;;;;;;4206087;28;20220;-73
2023/04/11 02:18:53;;;;;;;11.17;5.83;;;8.50;99.90;;;;;;4201164;28;20213;-73
2023/04/11 02:20:55;;;;;;;11.83;6.17;;;8.40;99.90;;;;;;4199185;28;20206;-73
2023/04/11 02:22:57;;;;;;;12.53;6.20;;;8.30;99.90;;;;;;4204817;28;20293;-73
2023/04/11 02:24:59;;;;;;;13.23;6.73;;;8.30;99.90;;;;;;4200279;28;20249;-73
2023/04/11 02:27:01;;;;;;;14.87;6.80;;;8.30;99.90;;;;;;4205607;28;20303;-73
2023/04/11 02:29:04;;;;;;;12.93;6.77;;;8.30;99.90;;;;;;4202618;28;20339;-73
2023/04/11 02:31:06;;;;;;;11.17;6.73;;;8.20;99.90;;;;;;4204696;28;20701;-73
2023/04/11 02:33:08;;;;;;;12.87;7.17;;;8.10;99.90;;;;;;4199216;28;20458;-73
2023/04/11 02:35:10;;;;;;;11.60;6.33;;;8.10;99.90;;;;;;4200405;28;20309;-73
2023/04/11 02:37:12;;;;;;;11.00;5.57;;;8.10;99.90;;;;;;4202863;28;20232;-73
2023/04/11 02:39:14;;;;;;;11.17;6.23;;;8.00;99.90;;;;;;4202274;28;20228;-72
2023/04/11 02:41:16;;;;;;;11.33;6.87;;;8.10;99.90;;;;;;4204687;28;21181;-73
2023/04/11 02:43:18;;;;;;;13.23;6.70;;;8.00;99.90;;;;;;4206200;28;20455;-73
2023/04/11 02:45:21;;;;;;;12.57;6.63;;;8.00;99.90;;;;;;4200097;28;20293;-73
2023/04/11 02:47:24;;;;;;;21.77;7.80;;;8.00;99.90;;;;;;4207604;28;20463;-75
2023/04/11 02:49:25;;;;;;;15.27;7.30;;;8.00;99.90;;;;;;4206515;28;20784;-74
2023/04/11 02:51:28;;;;;;;14.27;7.73;;;7.90;99.90;;;;;;4201882;28;20486;-75
2023/04/11 02:53:29;;;;;;;16.83;7.87;;;7.90;99.90;;;;;;4204609;28;20533;-74
2023/04/11 02:55:31;;;;;;;16.40;7.90;;;7.90;99.90;;;;;;4203653;28;20485;-75
2023/04/11 02:57:33;;;;;;;14.57;7.27;;;7.90;99.90;;;;;;4202618;28;20482;-74
2023/04/11 02:59:35;;;;;;;13.77;7.80;;;7.80;99.90;;;;;;4200019;28;20941;-74
2023/04/11 03:01:39;;;;;;;14.60;7.93;;;7.80;99.90;;;;;;4204164;28;20459;-74
2023/04/11 03:03:41;;;;;;;17.30;8.30;;;7.80;99.90;;;;;;4216666;28;20447;-74
2023/04/11 03:05:43;;;;;;;12.93;7.70;;;7.80;99.90;;;;;;4200055;28;20507;-73
2023/04/11 03:07:45;;;;;;;15.20;7.50;;;7.80;99.90;;;;;;4204941;28;20487;-74
2023/04/11 03:09:47;;;;;;;13.83;7.27;;;7.70;99.90;;;;;;4201955;28;20466;-73
2023/04/11 03:11:49;;;;;;;14.43;7.73;;;7.70;99.90;;;;;;4198348;28;20530;-73
2023/04/11 03:13:51;;;;;;;12.50;7.37;;;7.70;99.90;;;;;;4199615;28;21153;-73
2023/04/11 03:15:53;;;;;;;14.07;7.90;;;7.70;99.90;;;;;;4209652;28;20460;-74
2023/04/11 03:17:56;;;;;;;15.10;7.37;;;7.70;99.90;;;;;;4203759;28;21061;-74
2023/04/11 03:19:58;;;;;;;21.30;10.00;;;7.70;99.90;;;;;;4202609;28;20454;-74
2023/04/11 03:22:01;;;;;;;16.90;8.80;;;7.70;99.90;;;;;;4198716;28;21083;-74
2023/04/11 03:24:03;;;;;;;13.67;7.30;;;7.70;99.90;;;;;;4197740;28;20983;-74
2023/04/11 03:26:06;;;;;;;16.73;7.63;;;7.70;99.90;;;;;;4200339;28;20553;-74
2023/04/11 03:28:08;;;;;;;14.17;7.50;;;7.70;99.90;;;;;;4198241;28;20506;-74
2023/04/11 03:30:10;;;;;;;13.17;7.57;;;7.70;99.90;;;;;;4198941;28;20574;-74
2023/04/11 03:32:12;;;;;;;13.33;7.83;;;7.60;99.90;;;;;;4202219;28;20547;-74
2023/04/11 03:34:16;;;;;;;14.60;7.30;;;7.60;99.90;;;;;;4203893;28;20446;-74
2023/04/11 03:36:18;;;;;;;15.50;8.07;;;7.60;99.90;;;;;;4197576;28;20514;-75
2023/04/11 03:38:20;;;;;;;14.67;8.33;;;7.60;99.90;;;;;;4202201;28;21004;-74
2023/04/11 03:40:22;;;;;;;13.23;7.47;;;7.60;99.90;;;;;;4202888;28;20438;-74
2023/04/11 03:42:24;;;;;;;14.93;8.10;;;7.60;99.90;;;;;;4202652;28;21264;-74
2023/04/11 03:44:26;;;;;;;16.03;8.00;;;7.60;99.90;;;;;;4203288;28;20550;-74
2023/04/11 03:46:28;;;;;;;15.30;7.70;;;7.60;99.90;;;;;;4205242;28;20451;-74
2023/04/11 03:48:30;;;;;;;14.00;7.60;;;7.60;99.90;;;;;;4201402;28;20512;-74
2023/04/11 03:50:33;;;;;;;13.20;7.60;;;7.60;99.90;;;;;;4202473;28;20484;-74
2023/04/11 03:52:36;;;;;;;16.03;7.23;;;7.60;99.90;;;;;;4201153;28;20202;-73
2023/04/11 03:54:37;;;;;;;14.67;7.83;;;7.60;99.90;;;;;;4204847;28;20459;-74
2023/04/11 03:56:39;;;;;;;15.00;7.90;;;7.60;99.90;;;;;;4200341;28;20772;-73
2023/04/11 03:58:41;;;;;;;14.50;7.57;;;7.60;99.90;;;;;;4203604;28;20466;-74
2023/04/11 04:00:43;;;;;;;18.10;8.13;;;7.60;99.90;;;;;;4200833;28;20490;-74
2023/04/11 04:02:45;;;;;;;15.43;8.77;;;7.60;99.90;;;;;;4199560;28;20529;-74
2023/04/11 04:04:53;;;;;;;15.67;8.00;;;7.60;99.90;;;;;;4197983;28;20812;-74
2023/04/11 04:06:56;;;;;;;14.27;7.37;;;7.60;99.90;;;;;;4200975;28;21151;-74
2023/04/11 04:08:58;;;;;;;14.43;7.60;;;7.70;99.90;;;;;;4200962;28;20526;-74
2023/04/11 04:11:00;;;;;;;13.33;7.17;;;7.70;99.90;;;;;;4199514;28;20498;-74
2023/04/11 04:13:02;;;;;;;15.27;7.73;;;7.70;99.90;;;;;;4197752;28;20547;-74
2023/04/11 04:15:05;;;;;;;16.00;8.60;;;7.70;99.90;;;;;;4198926;28;20255;-74
2023/04/11 04:17:07;;;;;;;15.00;7.90;;;7.70;99.90;;;;;;4210036;28;20270;-74
2023/04/11 04:19:09;;;;;;;13.27;7.53;;;7.70;99.90;;;;;;4199191;28;20871;-74
2023/04/11 04:21:11;;;;;;;14.00;7.33;;;7.70;99.90;;;;;;4199923;28;20970;-74
2023/04/11 04:23:16;;;;;;;11.97;7.00;;;7.70;99.90;;;;;;4200544;28;20206;-74
2023/04/11 04:25:19;;;;;;;13.53;7.50;;;7.70;99.90;;;;;;4203863;28;20205;-73
2023/04/11 04:27:20;;;;;;;13.70;7.40;;;7.70;99.90;;;;;;4203064;28;20513;-74
2023/04/11 04:29:22;;;;;;;12.20;7.30;;;7.70;99.90;;;;;;4206401;28;20542;-73
2023/04/11 04:31:28;;;;;;;13.27;7.73;;;7.70;99.90;;;;;;4197472;28;20495;-74
2023/04/11 04:33:31;;;;;;;15.07;8.00;;;7.80;99.90;;;;;;4200985;28;20855;-74
2023/04/11 04:35:33;;;;;;;16.50;8.00;;;7.70;99.90;;;;;;4200510;28;20224;-74
2023/04/11 04:37:38;;;;;;;13.63;7.37;;;7.70;99.90;;;;;;4198399;28;20245;-74
2023/04/11 04:39:41;;;;;;;13.37;7.50;;;7.70;99.90;;;;;;4196609;28;20201;-74
2023/04/11 04:41:45;;;;;;;14.97;8.17;;;7.80;99.90;;;;;;4204120;28;20907;-73
2023/04/11 04:43:47;;;;;;;16.03;7.90;;;7.80;99.90;;;;;;4201798;28;20471;-73
2023/04/11 04:45:49;;;;;;;14.23;7.57;;;7.70;99.90;;;;;;4197651;28;20213;-74
2023/04/11 04:47:51;;;;;;;12.83;7.53;;;7.80;99.90;;;;;;4199612;28;20534;-74
2023/04/11 04:49:55;;;;;;;12.63;7.63;;;7.70;99.90;;;;;;4202567;28;20530;-74
2023/04/11 04:51:57;;;;;;;15.70;7.43;;;7.80;99.90;;;;;;4202322;28;20486;-74
2023/04/11 04:53:59;;;;;;;13.40;6.93;;;7.80;99.90;;;;;;4202973;28;20467;-74
2023/04/11 04:56:02;;;;;;;13.73;7.50;;;7.80;99.90;;;;;;4197141;28;20942;-74
2023/04/11 04:58:04;;;;;;;11.93;6.80;;;7.80;99.90;;;;;;4199590;28;20222;-74
2023/04/11 05:00:10;;;;;;;15.47;8.00;;;7.80;99.90;;;;;;4205008;28;20450;-74
2023/04/11 05:02:12;;;;;;;13.63;7.40;;;7.80;99.90;;;;;;4200189;28;20946;-74
2023/04/11 05:04:14;;;;;;;14.50;7.97;;;7.80;99.90;;;;;;4199523;28;20316;-74
2023/04/11 05:06:16;;;;;;;15.37;8.07;;;7.80;99.90;;;;;;4197204;28;20486;-75
2023/04/11 05:08:20;;;;;;;15.27;8.03;;;7.80;99.90;;;;;;4202247;28;20452;-74
2023/04/11 05:10:22;;;;;;;14.87;7.53;;;7.80;99.90;;;;;;4206173;28;20510;-74
2023/04/11 05:12:26;;;;;;;12.57;6.90;;;7.80;99.90;;;;;;4199883;28;20238;-74
2023/04/11 05:14:28;;;;;;;19.80;8.43;;;7.80;99.90;;;;;;4200239;28;20460;-74
2023/04/11 05:16:30;;;;;;;16.50;8.23;;;7.80;99.90;;;;;;4209260;28;20523;-74
2023/04/11 05:18:32;;;;;;;17.53;7.73;;;7.80;99.90;;;;;;4196274;28;20559;-74
2023/04/11 05:20:34;;;;;;;13.87;7.77;;;7.90;99.90;;;;;;4203346;28;20479;-74
2023/04/11 05:22:36;;;;;;;15.47;7.60;;;7.90;99.90;;;;;;4205340;28;20456;-74
2023/04/11 05:24:38;;;;;;;17.80;7.77;;;7.90;99.90;;;;;;4206524;28;20452;-74
2023/04/11 05:26:40;;;;;;;12.53;7.20;;;7.90;99.90;;;;;;4201898;28;20553;-74
2023/04/11 05:28:44;;;;;;;14.90;7.50;;;7.90;99.90;;;;;;4201852;28;20497;-74
2023/04/11 05:30:46;;;;;;;15.47;7.30;;;7.90;99.90;;;;;;4197690;28;20484;-74
2023/04/11 05:32:49;;;;;;;13.73;7.13;;;7.90;99.90;;;;;;4203316;28;20887;-74
2023/04/11 05:34:52;;;;;;;13.80;7.03;;;7.90;99.90;;;;;;4202025;28;20460;-73
2023/04/11 05:36:54;;;;;;;12.73;6.67;;;8.00;99.90;;;;;;4203553;28;20474;-74
2023/04/11 05:38:56;;;;;;;15.60;6.50;;;8.00;99.90;;;;;;4199207;28;20479;-74
2023/04/11 05:40:58;;;;;;;13.33;7.03;;;8.00;99.90;;;;;;4204744;28;20451;-74
2023/04/11 05:43:00;;;;;;;15.17;7.57;;;8.00;99.90;;;;;;4203094;28;20466;-74
2023/04/11 05:45:04;;;;;;;17.03;8.03;;;8.00;99.90;;;;;;4203130;28;20484;-74
2023/04/11 05:47:06;;;;;;;11.47;6.40;;;8.10;99.90;;;;;;4202841;28;21145;-73
2023/04/11 05:49:08;;;;;;;11.57;5.77;;;8.10;99.90;;;;;;4207305;28;20449;-74
2023/04/11 05:51:10;;;;;;;11.03;5.87;;;8.10;99.90;;;;;;4203294;28;20561;-74
2023/04/11 05:53:12;;;;;;;10.30;5.63;;;8.10;99.90;;;;;;4201603;28;20447;-73
2023/04/11 05:55:14;;;;;;;9.90;5.60;;;8.10;99.90;;;;;;4203771;28;20440;-74
2023/04/11 05:57:16;;;;;;;9.07;5.60;;;8.10;99.90;;;;;;4205478;28;20253;-74
2023/04/11 05:59:18;;;;;;;10.77;5.67;;;8.10;99.90;;;;;;4201694;28;20222;-74
2023/04/11 06:01:22;;;;;;;10.73;6.13;;;8.10;99.90;;;;;;4207597;28;20236;-73
2023/04/11 06:03:24;;;;;;;11.13;5.80;;;8.20;99.90;;;;;;4202076;28;20201;-74
2023/04/11 06:05:32;;;;;;;8.40;4.77;;;8.20;99.90;;;;;;4201100;28;20203;-75
2023/04/11 06:07:34;;;;;;;10.17;5.40;;;8.20;99.90;;;;;;4208272;28;20230;-74
2023/04/11 06:09:38;;;;;;;10.40;5.17;;;8.20;99.90;;;;;;4202075;28;20253;-74
2023/04/11 06:11:39;;;;;;;10.73;4.60;;;8.20;99.90;;;;;;4203822;28;20244;-74
2023/04/11 06:13:41;;;;;;;9.97;4.43;;;8.20;99.90;;;;;;4204447;28;20220;-74
2023/04/11 06:15:43;;;;;;;8.87;4.63;;;8.20;99.90;;;;;;4203666;28;20502;-74
2023/04/11 06:17:47;;;;;;;9.87;5.00;;;8.20;99.90;;;;;;4201075;28;20260;-74
2023/04/11 06:19:49;;;;;;;11.80;4.40;;;8.20;99.90;;;;;;4204278;28;20760;-74
2023/04/11 06:21:51;;;;;;;10.70;4.97;;;8.20;99.90;;;;;;4206681;28;20201;-74
2023/04/11 06:23:53;;;;;;;9.13;4.07;;;8.20;99.90;;;;;;4206380;28;20622;-74
2023/04/11 06:25:55;;;;;;;8.70;4.30;;;8.20;99.90;;;;;;4210786;28;20213;-74
2023/04/11 06:28:06;;;;;;;11.50;3.40;;;8.30;99.90;;;;;;4208106;28;20343;-74
2023/04/11 06:30:10;;;;;;;6.57;3.57;;;8.30;99.90;;;;;;4201091;28;20667;-74
2023/04/11 06:32:13;;;;;;;8.77;3.70;;;8.20;99.90;;;;;;4205319;28;20288;-74
2023/04/11 06:34:17;;;;;;;6.33;3.60;;;8.30;99.90;;;;;;4205912;28;20225;-75
2023/04/11 06:36:19;;;;;;;6.50;3.43;;;8.20;99.90;;;;;;4200823;28;20241;-74
2023/04/11 06:38:21;;;;;;;7.40;3.43;;;8.20;99.90;;;;;;4201639;28;20198;-74
2023/04/11 06:40:24;;;;;;;7.43;3.30;;;8.20;99.90;;;;;;4197234;28;20201;-74
2023/04/11 06:42:26;;;;;;;7.63;3.30;;;8.30;99.90;;;;;;4194842;28;20213;-76
2023/04/11 06:44:28;;;;;;;5.63;3.23;;;8.20;99.90;;;;;;4201776;28;20206;-77
2023/04/11 06:46:30;;;;;;;4.67;2.93;;;8.30;99.90;;;;;;4198737;28;20296;-73
2023/04/11 06:48:32;;;;;;;5.90;3.10;;;8.30;99.90;;;;;;4202295;28;20210;-75
2023/04/11 06:50:39;;;;;;;6.47;2.80;;;8.30;99.90;;;;;;4201240;28;20218;-73
2023/04/11 06:52:41;;;;;;;5.50;2.77;;;8.30;99.90;;;;;;4198268;28;20295;-73
2023/04/11 06:54:43;;;;;;;4.67;2.63;;;8.30;99.90;;;;;;4203436;28;20988;-74
2023/04/11 06:56:46;;;;;;;5.57;2.97;;;8.30;99.90;;;;;;4202522;28;20272;-74
2023/04/11 06:58:48;;;;;;;7.43;3.23;;;8.30;99.90;;;;;;4206243;28;20927;-74
2023/04/11 07:00:50;;;;;;;10.67;4.80;;;8.30;99.90;;;;;;4197348;28;20237;-74
2023/04/11 07:02:52;;;;;;;7.63;3.33;;;8.40;99.90;;;;;;4200222;28;20749;-74
2023/04/11 07:04:55;;;;;;;4.10;2.63;;;8.40;99.90;;;;;;4198456;28;20579;-74
2023/04/11 07:06:58;;;;;;;7.00;3.53;;;8.40;99.90;;;;;;4201685;28;20726;-74
2023/04/11 07:09:00;;;;;;;4.83;2.87;;;8.40;99.90;;;;;;4208988;28;20807;-74
2023/04/11 07:11:02;;;;;;;4.80;2.70;;;8.40;99.90;;;;;;4199183;28;20783;-74
2023/04/11 07:13:04;;;;;;;4.53;2.63;;;8.40;99.90;;;;;;4196977;28;20214;-73
2023/04/11 07:15:07;;;;;;;6.37;2.23;;;8.50;99.90;;;;;;4201681;28;20217;-74
2023/04/11 07:17:09;;;;;;;4.27;2.50;;;8.50;99.90;;;;;;4201399;28;20221;-74
2023/04/11 07:19:11;;;;;;;6.23;2.60;;;8.50;99.90;;;;;;4202592;28;20635;-74
2023/04/11 07:21:13;;;;;;;6.27;2.23;;;8.50;99.90;;;;;;4196928;28;20215;-73
2023/04/11 07:23:17;;;;;;;3.87;2.20;;;8.50;99.90;;;;;;4200766;28;20729;-74
2023/04/11 07:25:21;;;;;;;4.07;2.00;;;8.50;99.90;;;;;;4199328;28;20202;-74
2023/04/11 07:27:25;;;;;;;5.73;2.50;;;8.50;99.90;;;;;;4202240;28;20222;-74
2023/04/11 07:29:27;;;;;;;8.13;3.30;;;8.60;99.90;;;;;;4204524;28;20203;-73
2023/04/11 07:31:29;;;;;;;6.67;2.37;;;8.60;99.90;;;;;;4201040;28;20222;-74
2023/04/11 07:33:31;;;;;;;4.47;1.90;;;8.60;99.90;;;;;;4198079;28;20210;-75
2023/04/11 07:35:34;;;;;;;6.03;1.90;;;8.60;99.90;;;;;;4196391;28;20210;-73
2023/04/11 07:37:36;;;;;;;5.33;1.83;;;8.60;99.90;;;;;;4200917;28;20228;-74
2023/04/11 07:39:39;;;;;;;4.93;2.07;;;8.70;99.90;;;;;;4200031;28;20234;-73
2023/04/11 07:41:41;;;;;;;3.10;1.60;;;8.70;99.90;;;;;;4200030;28;20211;-73
2023/04/11 07:43:46;;;;;;;3.93;1.73;;;8.80;99.90;;;;;;4202010;28;20248;-74
2023/04/11 07:45:48;;;;;;;3.80;1.60;;;8.80;99.90;;;;;;4204434;28;20207;-73
2023/04/11 07:47:50;;;;;;;3.40;1.63;;;8.80;99.90;;;;;;4195168;28;20254;-73
2023/04/11 07:49:52;;;;;;;2.97;1.40;;;8.90;99.90;;;;;;4202144;28;20219;-74
2023/04/11 07:51:54;;;;;;;4.60;1.20;;;9.00;99.90;;;;;;4198142;28;20238;-74
2023/04/11 07:53:56;;;;;;;7.73;1.47;;;9.10;99.90;;;;;;4198990;28;20207;-74
2023/04/11 07:55:59;;;;;;;3.07;1.30;;;9.10;99.90;;;;;;4200454;28;20207;-73
2023/04/11 07:58:01;;;;;;;4.70;1.40;;;9.20;99.90;;;;;;4198904;28;21056;-74
2023/04/11 08:00:04;;;;;;;5.67;1.50;;;9.20;99.90;;;;;;4202384;28;20226;-74
2023/04/11 08:02:06;;;;;;;3.13;1.30;;;9.20;99.90;;;;;;4202637;28;20279;-74
2023/04/11 08:04:08;;;;;;;7.27;1.40;;;9.30;99.90;;;;;;4197830;28;20306;-73
2023/04/11 08:06:11;;;;;;;6.07;1.20;;;9.30;99.90;;;;;;4200944;28;20230;-74
2023/04/11 08:08:13;;;;;;;3.97;1.30;;;9.30;99.90;;;;;;4203474;28;20558;-74
2023/04/11 08:10:15;;;;;;;4.27;1.40;;;9.40;99.90;;;;;;4205879;28;20215;-73
2023/04/11 08:12:18;;;;;;;5.67;1.57;;;9.40;99.90;;;;;;4204206;28;20524;-75
2023/04/11 08:14:20;;;;;;;7.50;1.63;;;9.40;99.90;;;;;;4209124;28;20200;-73
2023/04/11 08:16:22;;;;;;;4.57;1.80;;;9.40;99.90;;;;;;4205170;28;20243;-74
2023/04/11 08:18:24;;;;;;;4.07;1.37;;;9.50;99.90;;;;;;4201448;28;20208;-74
2023/04/11 08:20:26;;;;;;;3.77;1.30;;;9.50;99.90;;;;;;4201246;28;20203;-74
2023/04/11 08:22:28;;;;;;;6.90;1.60;;;9.60;99.90;;;;;;4199737;28;20215;-74
2023/04/11 08:24:30;;;;;;;5.43;1.50;;;9.60;99.90;;;;;;4199104;28;20208;-75
2023/04/11 08:26:35;;;;;;;3.40;1.63;;;9.70;99.90;;;;;;4197371;28;20231;-74
2023/04/11 08:28:38;;;;;;;5.00;1.20;;;9.60;99.90;;;;;;4196978;28;20635;-74
2023/04/11 08:30:40;;;;;;;4.10;1.40;;;9.60;99.90;;;;;;4197753;28;20239;-75
2023/04/11 08:32:42;;;;;;;6.50;1.50;;;9.60;99.90;;;;;;4197661;28;20233;-75
2023/04/11 08:34:44;;;;;;;8.20;1.50;;;9.60;99.90;;;;;;4200408;28;20674;-74
2023/04/11 08:36:46;;;;;;;4.80;1.57;;;9.60;99.90;;;;;;4198255;28;20232;-75
2023/04/11 08:38:48;;;;;;;5.33;1.77;;;9.60;99.90;;;;;;4200857;28;20234;-74
2023/04/11 08:40:50;;;;;;;4.17;1.60;;;9.70;99.90;;;;;;4198517;28;20250;-75
2023/04/11 08:42:59;;;;;;;9.33;1.90;;;9.70;99.90;;;;;;4201038;28;20257;-75
2023/04/11 08:45:04;;;;;;;6.40;1.80;;;9.80;99.90;;;;;;4201590;28;20238;-75
2023/04/11 08:47:07;;;;;;;5.27;1.80;;;9.90;99.90;;;;;;4201770;28;20255;-76
2023/04/11 08:49:09;;;;;;;7.37;2.03;;;10.10;99.90;;;;;;4200657;28;20238;-75
2023/04/11 08:51:13;;;;;;;6.27;1.60;;;10.20;99.90;;;;;;4202910;28;20213;-75
2023/04/11 08:53:20;;;;;;;3.33;1.40;;;10.20;99.90;;;;;;4201133;28;20235;-75
2023/04/11 08:55:27;;;;;;;4.40;1.70;;;10.40;99.90;;;;;;4201909;28;20681;-74
2023/04/11 08:57:31;;;;;;;7.63;1.87;;;10.40;99.90;;;;;;4201173;28;20730;-75
2023/04/11 08:59:33;;;;;;;4.87;1.80;;;10.50;99.90;;;;;;4204686;28;20201;-74
2023/04/11 09:01:39;;;;;;;4.63;2.00;;;10.60;99.90;;;;;;4202083;28;20208;-75
2023/04/11 09:03:51;;;;;;;5.33;1.70;;;10.50;99.90;;;;;;4203092;28;20258;-74
2023/04/11 09:05:56;;;;;;;6.23;1.90;;;10.20;99.90;;;;;;4202520;28;20423;-74
2023/04/11 09:08:01;;;;;;;6.10;1.60;;;10.10;99.90;;;;;;4203472;28;20314;-74
2023/04/11 09:10:18;;;;;;;6.00;1.60;;;9.90;99.90;;;;;;4203263;28;20199;-75
2023/04/11 09:12:29;;;;;;;6.47;1.53;;;9.80;99.90;;;;;;4204343;28;20314;-74
2023/04/11 09:14:31;;;;;;;5.70;1.67;;;9.70;99.90;;;;;;4202907;28;20215;-75
2023/04/11 09:16:34;;;;;;;5.13;1.80;;;9.60;99.90;;;;;;4203788;28;20238;-74
2023/04/11 09:18:39;;;;;;;7.50;2.20;;;9.70;99.90;;;;;;4204941;28;20226;-75
2023/04/11 09:20:41;;;;;;;4.20;1.40;;;9.70;99.90;;;;;;4204069;28;20235;-75
2023/04/11 09:22:43;;;;;;;5.03;1.67;;;9.70;99.90;;;;;;4203398;28;20227;-74
2023/04/11 09:25:01;;;;;;;7.33;2.00;;;9.80;99.90;;;;;;4204339;28;20208;-74
2023/04/11 09:27:08;;;;;;;8.03;1.87;;;9.80;99.90;;;;;;4202394;28;20219;-75
2023/04/11 09:29:10;;;;;;;5.63;1.63;;;9.90;99.90;;;;;;4202584;28;20231;-75
2023/04/11 09:31:12;;;;;;;5.83;1.80;;;10.00;99.90;;;;;;4205924;28;20203;-74
2023/04/11 09:33:22;;;;;;;7.60;1.70;;;10.00;99.90;;;;;;4199486;28;20772;-75
2023/04/11 09:35:27;;;;;;;4.33;1.60;;;10.10;99.90;;;;;;4200124;28;20242;-75
2023/04/11 09:37:45;;;;;;;5.43;1.60;;;10.20;99.90;;;;;;4204199;28;20312;-75
2023/04/11 09:39:58;;;;;;;4.97;1.50;;;10.30;99.90;;;;;;4202516;28;20277;-75
2023/04/11 09:42:01;;;;;;;5.90;1.60;;;10.50;99.90;;;;;;4201251;28;20208;-74
2023/04/11 09:44:06;;;;;;;6.57;2.00;;;10.70;99.90;;;;;;4204959;28;20236;-75
2023/04/11 09:46:09;;;;;;;5.57;1.10;;;10.80;99.90;;;;;;4202628;28;20215;-75
2023/04/11 09:48:12;;;;;;;7.63;1.50;;;10.90;99.90;;;;;;4202642;28;20601;-75
2023/04/11 09:50:15;;;;;;;5.80;1.60;;;11.00;99.90;;;;;;4202075;28;20266;-79
2023/04/11 09:52:19;;;;;;;5.10;1.50;;;11.20;99.90;;;;;;4203195;28;20640;-75
2023/04/11 09:54:22;;;;;;;9.00;1.87;;;11.30;99.90;;;;;;4200308;28;20213;-74
2023/04/11 09:56:25;;;;;;;3.67;1.03;;;11.30;99.90;;;;;;4204678;28;20239;-73
2023/04/11 09:58:30;;;;;;;4.77;1.00;;;11.30;99.90;;;;;;4202105;28;20209;-75
2023/04/11 10:00:33;;;;;;;4.43;0.80;;;11.20;99.90;;;;;;4205138;28;20201;-74
2023/04/11 10:02:35;;;;;;;3.70;0.53;;;11.00;99.90;;;;;;4202165;28;20209;-75
2023/04/11 10:04:37;;;;;;;1.97;0.70;;;10.60;99.90;;;;;;4200986;28;20244;-72
2023/04/11 10:06:45;;;;;;;1.50;0.57;;;10.10;99.90;;;;;;4201720;28;20303;-73
2023/04/11 10:08:50;;;;;;;1.83;0.60;;;9.60;99.90;;;;;;4203073;28;20689;-74
2023/04/11 10:10:53;;;;;;;1.03;0.80;;;9.20;99.90;;;;;;4201576;28;20208;-72
2023/04/11 10:12:58;;;;;;;1.47;0.80;;;9.00;99.90;;;;;;4202484;28;20230;-73
2023/04/11 10:15:07;;;;;;;2.63;0.70;;;8.80;99.90;;;;;;4201277;28;20312;-75
2023/04/11 10:17:16;;;;;;;3.03;0.83;;;8.60;99.90;;;;;;4201544;28;20238;-73
2023/04/11 10:19:26;;;;;;;1.37;0.80;;;8.50;99.90;;;;;;4206517;28;20225;-73
2023/04/11 10:21:41;;;;;;;2.13;0.80;;;8.50;99.90;;;;;;4200437;28;20298;-72
2023/04/11 10:24:09;;;;;;;2.63;1.00;;;8.30;99.90;;;;;;4202540;28;20220;-73
2023/04/11 10:26:13;;;;;;;2.30;1.00;;;8.30;99.90;;;;;;4202058;28;20210;-73
2023/04/11 10:28:30;;;;;;;2.10;1.03;;;8.30;99.90;;;;;;4201021;28;20275;-72
2023/04/11 10:31:02;;;;;;;4.73;1.00;;;8.50;99.90;;;;;;4200478;28;20190;-73
2023/04/11 10:33:11;;;;;;;2.03;0.90;;;8.50;99.90;;;;;;4196637;28;20509;-73
2023/04/11 10:35:31;;;;;;;0.97;0.87;;;8.50;99.90;;;;;;4202239;28;20712;-73
2023/04/11 10:37:35;;;;;;;2.63;1.07;;;8.60;99.90;;;;;;4203115;28;20225;-74
2023/04/11 10:40:08;;;;;;;2.10;1.00;;;8.70;99.90;;;;;;4200796;28;20340;-74
2023/04/11 10:42:26;;;;;;;2.57;1.10;;;8.70;99.90;;;;;;4202224;28;20215;-74
2023/04/11 10:44:28;;;;;;;7.33;1.60;;;8.80;99.90;;;;;;4199362;28;20731;-75
2023/04/11 10:46:30;;;;;;;4.23;1.40;;;8.90;99.90;;;;;;4203332;28;20205;-74